OSDI/DAM METAR and TAF weather

Enter ICAO airport designator
Station Type Date Time Source
OSDI METAR 2021/09/24 01:00 UTC NOAA

OSDI 240100Z 23004KT 9999 FEW030 SCT100 19/12 Q1009


Station Type Date Time Source
OSDI Decoded METAR 2021/09/24 01:00 UTC NOAA

Damascus Int. Airport, Syria (OSDI) 33-25N 036-31E 609M
Sep 23, 2021 - 09:00 PM EDT / 2021.09.24 0100 UTC
Wind: from the SW (230 degrees) at 5 MPH (4 KT):0
Visibility: greater than 7 mile(s):0
Sky conditions: partly cloudy
Temperature: 66 F (19 C)
Dew Point: 53 F (12 C)
Relative Humidity: 63%
Pressure (altimeter): 29.80 in. Hg (1009 hPa)
ob: OSDI 240100Z 23004KT 9999 FEW030 SCT100 19/12 Q1009
cycle: 1

Station Type Date Time Source
OSDI TAF 2021/09/23 18:54 UTC NOAA

TAF OSDI 231700Z 2318/2424 22015G25KT 8000 FEW030 SCT100 PROB30
TEMPO 2318/2412 26025G35KT 6000 SHRA FEW026CB SCT030 BKN100

Example: see airport list